Time;durP1;ratioP1;P1;durP2;ratioP2;P2;SDS_P1;SDS_P2;PMS_P1;PMS_P2;Temp;Humidity;BMP_temperature;BMP_pressure;BME280_temperature;BME280_humidity;BME280_pressure;Samples;Min_cycle;Max_cycle;Signal;HPM_P1;HPM_P2
2023/06/24 00:01:33;;;;;;;0.90;0.90;;;;;;;22.36;55.50;101836.31;5133730;28;20039;-79
2023/06/24 00:04:24;;;;;;;0.90;0.65;;;;;;;22.31;55.22;101841.94;5127627;28;20046;-78
2023/06/24 00:07:15;;;;;;;0.73;0.73;;;;;;;22.32;55.88;101835.63;5118412;28;20043;-79
2023/06/24 00:10:06;;;;;;;0.60;0.60;;;;;;;22.27;55.53;101844.88;5145084;28;20157;-79
2023/06/24 00:13:01;;;;;;;0.28;0.28;;;;;;;22.25;55.22;101834.28;5129606;28;20023;-78
2023/06/24 00:15:51;;;;;;;0.77;0.77;;;;;;;22.21;55.49;101832.72;5145921;28;20035;-79
2023/06/24 00:18:42;;;;;;;1.13;0.85;;;;;;;22.17;55.50;101844.56;5148037;28;20054;-80
2023/06/24 00:21:37;;;;;;;0.80;0.73;;;;;;;22.10;55.30;101830.69;5115841;28;20069;-79
2023/06/24 00:24:29;;;;;;;0.60;0.60;;;;;;;22.12;56.09;101834.13;5127008;28;20026;-79
2023/06/24 00:27:20;;;;;;;0.93;0.93;;;;;;;22.08;55.80;101834.41;5131290;28;20045;-79
2023/06/24 00:30:11;;;;;;;1.65;1.23;;;;;;;22.09;55.66;101833.47;5127798;28;20034;-80
2023/06/24 00:33:02;;;;;;;0.45;0.45;;;;;;;22.06;56.37;101828.28;5116368;28;20033;-80
2023/06/24 00:35:54;;;;;;;0.55;0.52;;;;;;;22.02;56.10;101838.28;5124004;28;20039;-79
2023/06/24 00:38:51;;;;;;;0.70;0.70;;;;;;;21.97;56.26;101833.22;5130781;28;20035;-79
2023/06/24 00:41:42;;;;;;;0.77;0.77;;;;;;;21.94;56.62;101833.38;5145625;28;20030;-80
2023/06/24 00:44:33;;;;;;;2.72;1.95;;;;;;;21.89;56.25;101838.13;5120160;28;20031;-79
2023/06/24 00:47:24;;;;;;;0.52;0.52;;;;;;;21.88;56.25;101832.88;5130846;28;20042;-79
2023/06/24 00:50:16;;;;;;;7.25;1.63;;;;;;;21.84;56.29;101833.06;5116300;28;20050;-80
2023/06/24 00:53:06;;;;;;;0.80;0.80;;;;;;;21.82;56.59;101832.28;5115693;28;20086;-80
2023/06/24 00:56:02;;;;;;;2.20;1.02;;;;;;;21.80;56.38;101834.19;5146426;28;20654;-79
2023/06/24 00:58:54;;;;;;;0.50;0.50;;;;;;;21.83;56.53;101833.16;5115479;28;20518;-79
2023/06/24 01:01:46;;;;;;;0.70;0.70;;;;;;;21.76;56.56;101826.44;5128123;28;20038;-79
2023/06/24 01:04:37;;;;;;;3.72;1.67;;;;;;;21.76;56.83;101824.63;5119548;28;20112;-79
2023/06/24 01:07:29;;;;;;;0.82;0.60;;;;;;;21.75;57.21;101825.56;5126887;28;20446;-79
2023/06/24 01:10:22;;;;;;;0.80;0.80;;;;;;;21.72;57.31;101833.78;5129562;28;20072;-79
2023/06/24 01:13:13;;;;;;;0.57;0.47;;;;;;;21.71;57.71;101837.38;5116581;28;20035;-79
2023/06/24 01:16:13;;;;;;;0.60;0.60;;;;;;;21.68;57.61;101834.88;5127076;28;20286;-78
2023/06/24 01:19:18;;;;;;;0.40;0.40;;;;;;;21.66;57.28;101831.41;5146446;28;20074;-78
2023/06/24 01:22:12;;;;;;;0.95;0.70;;;;;;;21.62;57.58;101827.22;5130587;28;20515;-79
2023/06/24 01:25:24;;;;;;;0.40;0.40;;;;;;;21.59;57.41;101830.94;5113359;28;20062;-79
2023/06/24 01:28:59;;;;;;;0.57;0.57;;;;;;;21.59;57.92;101832.72;5115662;28;20034;-79
2023/06/24 01:32:04;;;;;;;1.63;1.40;;;;;;;21.52;57.37;101835.72;5144238;28;20110;-78
2023/06/24 01:34:57;;;;;;;0.38;0.38;;;;;;;21.51;57.78;101833.13;5128051;28;20102;-80
2023/06/24 01:37:54;;;;;;;1.20;1.13;;;;;;;21.47;57.81;101831.56;5133997;28;20031;-78
2023/06/24 01:40:46;;;;;;;1.05;0.75;;;;;;;21.42;57.97;101836.31;5115057;28;20046;-80
2023/06/24 01:43:39;;;;;;;1.05;1.05;;;;;;;21.37;57.83;101834.75;5124414;28;20031;-78
2023/06/24 01:46:30;;;;;;;0.75;0.75;;;;;;;21.38;58.31;101824.94;5131149;28;20042;-79
2023/06/24 01:49:22;;;;;;;0.60;0.60;;;;;;;21.34;58.59;101824.25;5129027;28;20112;-79
2023/06/24 01:52:14;;;;;;;7.88;1.55;;;;;;;21.34;58.66;101820.69;5113479;28;20027;-77
2023/06/24 01:55:08;;;;;;;1.50;1.40;;;;;;;21.30;58.56;101817.34;5128920;28;20445;-79
2023/06/24 01:58:02;;;;;;;0.52;0.52;;;;;;;21.30;58.39;101825.34;5133616;28;20026;-79
2023/06/24 02:00:55;;;;;;;0.30;0.30;;;;;;;21.29;58.41;101820.94;5128728;28;20074;-79
2023/06/24 02:03:49;;;;;;;0.57;0.57;;;;;;;21.26;58.33;101818.47;5135723;28;20050;-81
2023/06/24 02:06:42;;;;;;;0.50;0.50;;;;;;;21.26;58.90;101813.13;5116875;28;20082;-80
2023/06/24 02:09:33;;;;;;;0.60;0.60;;;;;;;21.21;58.74;101809.84;5144875;28;20023;-80
2023/06/24 02:12:27;;;;;;;0.30;0.30;;;;;;;21.16;59.05;101812.75;5132233;28;20065;-79
2023/06/24 02:15:19;;;;;;;2.28;0.65;;;;;;;21.17;59.12;101803.81;5131487;28;20042;-78
2023/06/24 02:18:12;;;;;;;0.45;0.45;;;;;;;21.13;58.80;101812.06;5123404;28;20033;-79
2023/06/24 02:21:05;;;;;;;0.52;0.52;;;;;;;21.13;59.49;101814.72;5115192;28;20062;-79
2023/06/24 02:23:57;;;;;;;1.40;1.20;;;;;;;21.10;58.82;101812.25;5144928;28;20451;-79
2023/06/24 02:26:49;;;;;;;0.50;0.50;;;;;;;21.07;59.34;101811.47;5113349;28;20039;-79
2023/06/24 02:29:41;;;;;;;0.75;0.75;;;;;;;21.10;59.41;101817.59;5142930;28;20093;-80
2023/06/24 02:32:32;;;;;;;2.63;0.75;;;;;;;21.06;59.10;101817.75;5127754;28;20038;-79
2023/06/24 02:35:23;;;;;;;0.80;0.80;;;;;;;21.08;59.49;101820.31;5113184;28;20042;-80
2023/06/24 02:38:14;;;;;;;0.80;0.50;;;;;;;21.04;59.26;101822.28;5117380;28;20074;-78
2023/06/24 02:41:05;;;;;;;2.45;2.17;;;;;;;21.00;59.29;101812.75;5147608;28;20051;-79
2023/06/24 02:43:56;;;;;;;2.20;1.35;;;;;;;20.92;59.61;101810.47;5132023;28;20084;-78
2023/06/24 02:46:49;;;;;;;0.60;0.60;;;;;;;20.90;59.40;101814.19;5132541;28;20090;-79
2023/06/24 02:49:46;;;;;;;1.13;1.13;;;;;;;20.91;59.75;101819.41;5144535;28;20839;-78
2023/06/24 02:52:37;;;;;;;1.08;1.08;;;;;;;20.88;59.93;101818.72;5129546;28;20023;-78
2023/06/24 02:55:29;;;;;;;2.58;1.50;;;;;;;20.80;61.01;101815.59;5133980;28;20039;-78
2023/06/24 02:58:21;;;;;;;1.83;1.73;;;;;;;20.81;62.38;101817.31;5158773;28;20030;-78
2023/06/24 03:01:12;;;;;;;0.85;0.85;;;;;;;20.65;63.85;101823.44;5146380;28;20071;-79
2023/06/24 03:04:03;;;;;;;0.90;0.90;;;;;;;20.69;62.34;101825.03;5130678;28;20058;-78
2023/06/24 03:06:54;;;;;;;0.90;0.90;;;;;;;20.72;61.15;101829.31;5127327;28;20073;-79
2023/06/24 03:09:45;;;;;;;1.45;1.35;;;;;;;20.70;61.60;101836.53;5131945;28;20031;-78
2023/06/24 03:12:36;;;;;;;0.90;0.90;;;;;;;20.72;60.77;101832.00;5131434;28;20133;-80
2023/06/24 03:15:28;;;;;;;1.20;0.88;;;;;;;20.68;60.94;101831.28;5138552;28;20038;-79
2023/06/24 03:18:19;;;;;;;0.57;0.57;;;;;;;20.72;61.71;101835.50;5130960;28;20126;-79
2023/06/24 03:21:10;;;;;;;1.27;1.20;;;;;;;20.65;60.33;101839.44;5122415;28;20031;-80
2023/06/24 03:24:01;;;;;;;1.85;1.42;;;;;;;20.59;61.77;101834.44;5144256;28;20035;-79
2023/06/24 03:26:56;;;;;;;1.00;0.93;;;;;;;20.64;61.21;101836.88;5146608;28;20093;-79
2023/06/24 03:29:47;;;;;;;0.80;0.80;;;;;;;20.56;63.36;101839.91;5131720;28;20019;-79
2023/06/24 03:32:38;;;;;;;1.30;1.20;;;;;;;20.64;62.15;101837.72;5118289;28;20035;-80
2023/06/24 03:35:31;;;;;;;1.52;1.42;;;;;;;20.55;62.16;101831.06;5135126;28;20102;-79
2023/06/24 03:38:25;;;;;;;0.68;0.68;;;;;;;20.53;62.36;101834.75;5132157;28;20093;-78
2023/06/24 03:41:19;;;;;;;1.67;1.45;;;;;;;20.38;64.55;101834.59;5130135;28;20073;-79
2023/06/24 03:44:16;;;;;;;1.27;0.85;;;;;;;20.53;62.49;101846.28;5119964;28;20093;-79
2023/06/24 03:47:26;;;;;;;1.20;1.10;;;;;;;20.47;62.11;101838.59;5146496;28;20049;-79
2023/06/24 03:50:17;;;;;;;0.82;0.82;;;;;;;20.56;62.20;101845.25;5140358;28;20030;-80
2023/06/24 03:53:11;;;;;;;1.98;1.00;;;;;;;20.54;62.03;101850.66;5134428;28;20023;-79
2023/06/24 03:56:04;;;;;;;1.13;1.05;;;;;;;20.53;61.58;101848.09;5143693;28;20685;-80
2023/06/24 03:58:59;;;;;;;1.90;1.17;;;;;;;20.53;62.28;101856.09;5145867;28;20034;-79
2023/06/24 04:01:51;;;;;;;5.72;2.30;;;;;;;20.51;61.89;101850.81;5126675;28;20031;-80
2023/06/24 04:04:45;;;;;;;0.75;0.75;;;;;;;20.52;63.33;101846.34;5135626;28;20038;-79
2023/06/24 04:08:07;;;;;;;1.60;1.10;;;;;;;20.53;62.75;101856.09;5120540;28;20077;-80
2023/06/24 04:11:03;;;;;;;0.80;0.80;;;;;;;20.52;63.01;101851.69;5119162;28;20050;-81
2023/06/24 04:13:54;;;;;;;1.58;1.45;;;;;;;20.52;62.81;101851.69;5130276;28;20031;-79
2023/06/24 04:17:34;;;;;;;2.72;1.83;;;;;;;20.46;62.57;101860.88;5113824;28;20049;-81
2023/06/24 04:20:34;;;;;;;0.82;0.82;;;;;;;20.49;62.42;101860.72;5157715;28;20469;-78
2023/06/24 04:23:57;;;;;;;0.45;0.45;;;;;;;20.50;62.55;101851.75;5129003;28;20522;-78
2023/06/24 04:27:03;;;;;;;0.85;0.85;;;;;;;20.45;62.15;101857.31;5141954;23;20042;-79
2023/06/24 04:30:39;;;;;;;0.80;0.80;;;;;;;20.49;62.32;101858.06;5192111;28;20029;-79
2023/06/24 04:33:33;;;;;;;1.60;0.90;;;;;;;20.47;61.84;101867.03;5187963;28;20037;-80
2023/06/24 04:36:23;;;;;;;1.40;1.20;;;;;;;20.50;62.79;101869.56;5192463;28;20520;-79
2023/06/24 04:39:14;;;;;;;0.77;0.77;;;;;;;20.45;62.45;101864.47;5216083;28;20878;-80
2023/06/24 04:42:05;;;;;;;1.00;1.00;;;;;;;20.45;62.26;101870.63;5202502;28;20029;-79
2023/06/24 04:44:56;;;;;;;1.23;1.13;;;;;;;20.48;62.17;101869.66;5189953;28;20409;-80
2023/06/24 04:47:47;;;;;;;1.00;0.93;;;;;;;20.50;62.29;101867.75;5216145;28;20057;-79
2023/06/24 04:50:38;;;;;;;0.73;0.73;;;;;;;20.49;62.24;101870.50;5206694;28;20025;-80
2023/06/24 04:53:29;;;;;;;1.27;1.20;;;;;;;20.51;62.48;101861.47;5201636;28;20021;-77
2023/06/24 04:56:20;;;;;;;2.10;1.90;;;;;;;20.45;62.40;101865.31;5214698;28;20032;-77
2023/06/24 04:59:11;;;;;;;4.13;1.25;;;;;;;20.49;62.81;101859.84;5210461;28;20036;-78
2023/06/24 05:02:02;;;;;;;0.80;0.80;;;;;;;20.44;64.06;101860.94;5195241;28;20037;-77
2023/06/24 05:04:53;;;;;;;0.80;0.80;;;;;;;20.28;65.75;101860.84;5213886;28;20025;-77
2023/06/24 05:07:44;;;;;;;1.10;0.80;;;;;;;20.31;64.05;101856.31;5196000;28;20043;-78
2023/06/24 05:10:35;;;;;;;1.10;1.10;;;;;;;20.31;65.54;101862.50;5194491;28;20125;-78
2023/06/24 05:13:27;;;;;;;3.85;2.42;;;;;;;20.28;64.62;101868.00;5214840;28;20040;-77
2023/06/24 05:16:18;;;;;;;1.52;1.42;;;;;;;20.26;65.63;101859.19;5211695;28;20090;-78
2023/06/24 05:19:09;;;;;;;1.05;0.98;;;;;;;20.16;66.52;101855.25;5204588;28;20028;-78
2023/06/24 05:22:00;;;;;;;0.75;0.75;;;;;;;20.10;66.86;101862.63;5214693;28;20037;-77
2023/06/24 05:24:51;;;;;;;0.90;0.90;;;;;;;20.07;66.54;101851.25;5201575;28;20037;-77
2023/06/24 05:27:44;;;;;;;1.60;1.50;;;;;;;19.91;67.40;101861.78;5214834;28;20602;-78
2023/06/24 05:30:35;;;;;;;1.33;0.90;;;;;;;19.89;67.45;101853.00;5220003;28;20033;-80
2023/06/24 05:33:26;;;;;;;1.85;1.25;;;;;;;19.75;67.77;101865.16;5220157;28;20314;-78
2023/06/24 05:36:19;;;;;;;;;;;;;;;19.82;67.45;101871.06;5221046;28;20037;-78
2023/06/24 05:39:11;;;;;;;0.60;0.60;;;;;;;19.87;67.50;101868.22;5204316;28;19917;-78
2023/06/24 05:42:02;;;;;;;0.70;0.70;;;;;;;19.88;67.75;101869.91;5207447;28;20037;-78
2023/06/24 05:44:53;;;;;;;1.55;1.45;;;;;;;19.96;67.01;101873.97;5198379;28;20024;-78
2023/06/24 05:47:46;;;;;;;6.75;2.75;;;;;;;19.79;67.97;101877.38;5214870;28;20033;-78
2023/06/24 05:50:37;;;;;;;1.23;0.93;;;;;;;19.89;67.02;101876.97;5203371;28;20032;-76
2023/06/24 05:53:28;;;;;;;0.88;0.88;;;;;;;20.00;66.12;101874.66;5212676;28;20079;-78
2023/06/24 05:56:21;;;;;;;7.93;0.70;;;;;;;19.93;66.51;101879.41;5220789;28;20038;-78
2023/06/24 05:59:11;;;;;;;1.13;1.08;;;;;;;19.94;66.12;101880.31;5202385;28;20116;-78
2023/06/24 06:02:02;;;;;;;1.30;0.73;;;;;;;20.00;65.50;101874.66;5213518;28;20033;-79
2023/06/24 06:04:53;;;;;;;0.60;0.60;;;;;;;20.08;65.00;101872.50;5218835;28;20017;-79
2023/06/24 06:07:44;;;;;;;1.33;0.98;;;;;;;19.95;64.88;101876.72;5212532;28;20060;-79
2023/06/24 06:10:35;;;;;;;1.92;1.35;;;;;;;19.91;65.37;101883.09;5187202;28;20428;-78
2023/06/24 06:13:25;;;;;;;1.60;1.38;;;;;;;19.91;65.36;101891.97;5211227;28;20068;-79
2023/06/24 06:16:16;;;;;;;1.73;1.35;;;;;;;20.05;65.01;101883.28;5212140;28;20036;-78
2023/06/24 06:19:07;;;;;;;1.15;1.15;;;;;;;20.15;64.51;101888.16;5216231;28;20445;-77
2023/06/24 06:21:58;;;;;;;2.80;1.15;;;;;;;20.12;64.20;101883.88;5193630;28;20029;-77
2023/06/24 06:24:48;;;;;;;1.48;1.25;;;;;;;20.11;64.70;101892.78;5201696;28;20104;-78
2023/06/24 06:27:39;;;;;;;4.13;1.80;;;;;;;20.32;63.21;101890.88;5210665;28;20063;-78
2023/06/24 06:30:30;;;;;;;2.75;1.02;;;;;;;20.24;63.45;101893.06;5178768;28;20033;-78
2023/06/24 06:33:21;;;;;;;0.88;0.88;;;;;;;20.18;63.38;101891.53;5204376;28;20036;-79
2023/06/24 06:36:12;;;;;;;1.00;0.90;;;;;;;20.15;63.65;101891.72;5201100;28;20037;-78
2023/06/24 06:39:03;;;;;;;0.70;0.70;;;;;;;20.20;64.25;101894.16;5216264;28;20029;-79
2023/06/24 06:41:53;;;;;;;0.50;0.50;;;;;;;20.18;64.02;101894.22;5184646;28;20032;-80
2023/06/24 06:44:44;;;;;;;0.38;0.38;;;;;;;20.09;64.15;101900.88;5213360;28;20028;-79
2023/06/24 06:47:35;;;;;;;6.15;2.10;;;;;;;20.17;64.60;101894.28;5198800;28;20523;-78
2023/06/24 06:50:26;;;;;;;0.88;0.88;;;;;;;20.18;64.55;101904.03;5209334;28;20040;-79
2023/06/24 06:53:16;;;;;;;1.63;1.08;;;;;;;20.29;64.72;101907.00;5215066;28;20453;-79
2023/06/24 06:56:07;;;;;;;0.40;0.40;;;;;;;20.38;63.67;101901.22;5211099;28;20119;-79
2023/06/24 06:58:58;;;;;;;2.45;2.13;;;;;;;20.34;64.57;101904.09;5214378;28;20036;-79
2023/06/24 07:01:49;;;;;;;1.85;1.75;;;;;;;20.36;64.05;101911.13;5210738;28;20113;-78
2023/06/24 07:04:40;;;;;;;1.15;1.05;;;;;;;20.50;63.50;101907.72;5210183;28;20102;-78
2023/06/24 07:07:30;;;;;;;1.17;1.02;;;;;;;20.51;63.18;101908.63;5209835;28;20081;-79
2023/06/24 07:10:21;;;;;;;0.50;0.50;;;;;;;20.52;63.39;101911.19;5213802;28;20033;-78
2023/06/24 07:13:12;;;;;;;0.95;0.95;;;;;;;20.51;63.71;101911.28;5213568;28;20057;-78
2023/06/24 07:16:03;;;;;;;2.10;0.85;;;;;;;20.74;62.93;101912.81;5196525;28;20113;-78
2023/06/24 07:18:54;;;;;;;0.95;0.95;;;;;;;20.73;63.70;101911.09;5201767;28;20439;-79
2023/06/24 07:21:45;;;;;;;0.80;0.77;;;;;;;20.66;63.24;101910.50;5208809;28;20579;-78
2023/06/24 07:24:36;;;;;;;1.17;1.13;;;;;;;20.75;63.14;101920.72;5227882;28;20116;-78
2023/06/24 07:27:26;;;;;;;0.93;0.93;;;;;;;20.80;62.98;101917.84;5198101;28;20037;-78
2023/06/24 07:30:17;;;;;;;0.55;0.55;;;;;;;20.87;61.89;101918.34;5196831;28;20077;-78
2023/06/24 07:33:08;;;;;;;1.23;1.08;;;;;;;20.97;62.16;101919.63;5206749;28;20635;-79
2023/06/24 07:35:59;;;;;;;1.17;1.08;;;;;;;20.94;62.05;101919.78;5218269;28;20140;-78
2023/06/24 07:38:49;;;;;;;6.90;2.53;;;;;;;21.01;61.33;101914.97;5218571;28;20112;-79
2023/06/24 07:41:42;;;;;;;0.88;0.88;;;;;;;20.96;60.45;101917.88;5210933;28;20045;-78
2023/06/24 07:44:33;;;;;;;1.27;1.10;;;;;;;21.00;61.44;101924.81;5202674;28;20064;-79
2023/06/24 07:47:23;;;;;;;2.97;1.00;;;;;;;21.10;61.37;101919.84;5201320;28;20038;-79
2023/06/24 07:50:14;;;;;;;0.55;0.55;;;;;;;21.02;61.35;101922.91;5216078;28;20086;-78
2023/06/24 07:53:05;;;;;;;2.03;1.08;;;;;;;21.16;61.10;101918.66;5198828;28;20071;-79
2023/06/24 07:55:56;;;;;;;1.45;1.38;;;;;;;21.17;60.34;101913.22;5221825;28;20029;-78
2023/06/24 07:58:47;;;;;;;1.42;1.10;;;;;;;21.17;61.36;101910.56;5209631;28;20040;-79
2023/06/24 08:01:38;;;;;;;1.65;0.85;;;;;;;21.21;60.83;101916.59;5193534;28;20112;-79
2023/06/24 08:04:28;;;;;;;0.85;0.85;;;;;;;21.33;60.67;101918.63;5188470;28;20490;-79
2023/06/24 08:07:19;;;;;;;2.72;1.75;;;;;;;21.45;60.10;101918.88;5205681;28;20025;-79
2023/06/24 08:10:10;;;;;;;1.00;0.90;;;;;;;21.43;60.11;101918.97;5222161;28;20101;-79
2023/06/24 08:13:01;;;;;;;1.55;1.25;;;;;;;21.42;60.47;101919.91;5225731;28;20018;-80
2023/06/24 08:15:52;;;;;;;7.63;2.78;;;;;;;21.43;60.69;101913.63;5219319;28;20465;-78
2023/06/24 08:18:43;;;;;;;1.60;1.50;;;;;;;21.46;60.07;101916.16;5196431;28;20069;-78
2023/06/24 08:21:34;;;;;;;4.20;1.20;;;;;;;21.58;60.09;101920.00;5208317;28;20041;-78
2023/06/24 08:24:25;;;;;;;0.47;0.47;;;;;;;21.61;59.93;101918.97;5217545;28;20033;-79
2023/06/24 08:27:16;;;;;;;4.40;2.15;;;;;;;21.61;59.74;101921.63;5202666;28;20072;-78
2023/06/24 08:30:07;;;;;;;0.47;0.47;;;;;;;21.66;60.59;101923.09;5202357;28;20029;-79
2023/06/24 08:32:58;;;;;;;1.40;0.82;;;;;;;21.76;59.34;101914.59;5186243;28;20025;-79
2023/06/24 08:35:49;;;;;;;2.45;1.70;;;;;;;21.75;58.82;101903.03;5189459;28;20029;-79
2023/06/24 08:38:40;;;;;;;1.15;1.05;;;;;;;21.89;59.31;101907.59;5188825;28;20059;-78
2023/06/24 08:41:31;;;;;;;1.45;1.35;;;;;;;21.86;58.68;101913.09;5199933;28;20116;-78
2023/06/24 08:44:21;;;;;;;4.35;2.28;;;;;;;21.91;59.17;101911.06;5212198;28;20489;-78
2023/06/24 08:47:14;;;;;;;1.23;1.20;;;;;;;21.92;59.02;101914.56;5181172;28;20751;-78
2023/06/24 08:50:11;;;;;;;2.22;1.55;;;;;;;21.90;58.91;101906.66;5198404;28;20037;-79
2023/06/24 08:53:07;;;;;;;2.20;1.40;;;;;;;22.01;59.15;101900.69;5209554;28;20021;-78
2023/06/24 08:55:58;;;;;;;0.80;0.80;;;;;;;22.06;59.38;101897.75;5207315;28;20037;-77
2023/06/24 08:58:49;;;;;;;1.25;1.17;;;;;;;22.10;59.69;101900.16;5200876;28;20030;-78
2023/06/24 09:01:39;;;;;;;0.50;0.50;;;;;;;22.14;59.04;101890.16;5213215;28;20032;-77
2023/06/24 09:04:30;;;;;;;1.33;1.23;;;;;;;22.16;58.67;101890.94;5214259;28;20037;-77
2023/06/24 09:07:28;;;;;;;4.93;1.92;;;;;;;22.28;59.35;101894.72;5198680;28;20036;-77
2023/06/24 09:10:35;;;;;;;0.45;0.45;;;;;;;22.25;59.23;101897.56;5185712;28;20041;-78
2023/06/24 09:13:36;;;;;;;2.65;1.67;;;;;;;22.32;59.53;101898.91;5202729;28;20021;-78
2023/06/24 09:16:28;;;;;;;1.50;1.40;;;;;;;22.37;58.40;101895.97;5196223;28;20028;-78
2023/06/24 09:19:23;;;;;;;2.10;1.52;;;;;;;22.42;58.74;101894.81;5203987;28;20021;-78
2023/06/24 09:22:17;;;;;;;1.20;1.17;;;;;;;22.46;58.22;101890.13;5216502;28;20119;-77
2023/06/24 09:25:08;;;;;;;1.27;1.00;;;;;;;22.61;57.80;101885.69;5221791;28;20497;-78
2023/06/24 09:28:02;;;;;;;0.82;0.82;;;;;;;22.59;57.06;101885.78;5204798;28;20041;-78
2023/06/24 09:31:06;;;;;;;1.23;1.13;;;;;;;22.54;56.27;101881.66;5187814;28;20021;-78
2023/06/24 09:33:57;;;;;;;0.73;0.73;;;;;;;22.63;56.69;101887.31;5217649;28;21015;-79
2023/06/24 09:36:53;;;;;;;2.17;0.85;;;;;;;22.64;56.24;101875.66;5211111;28;20033;-79
2023/06/24 09:39:45;;;;;;;1.48;1.38;;;;;;;22.75;54.78;101876.84;5217265;28;20037;-79
2023/06/24 09:42:36;;;;;;;1.35;1.25;;;;;;;22.71;54.48;101872.63;5206795;28;20045;-78
2023/06/24 09:45:28;;;;;;;2.05;1.55;;;;;;;22.72;54.43;101869.88;5196763;28;20041;-80
2023/06/24 09:48:19;;;;;;;2.27;2.03;;;;;;;22.82;55.09;101861.25;5220366;28;20663;-80
2023/06/24 09:51:12;;;;;;;0.60;0.60;;;;;;;22.79;53.96;101865.88;5183052;28;20033;-79
2023/06/24 09:54:07;;;;;;;0.93;0.93;;;;;;;22.78;53.66;101858.78;5214251;28;20052;-78
2023/06/24 09:57:02;;;;;;;0.50;0.50;;;;;;;22.82;54.07;101856.78;5212994;28;20048;-80
2023/06/24 09:59:54;;;;;;;1.15;0.80;;;;;;;22.87;54.89;101851.16;5207918;28;20453;-80
2023/06/24 10:02:46;;;;;;;0.30;0.30;;;;;;;22.99;54.36;101854.88;5198291;28;20037;-80
2023/06/24 10:05:37;;;;;;;0.40;0.40;;;;;;;23.00;53.76;101853.94;5203629;28;20037;-80
2023/06/24 10:08:30;;;;;;;0.70;0.70;;;;;;;23.13;53.98;101846.84;5212181;28;20034;-80
2023/06/24 10:11:52;;;;;;;0.80;0.70;;;;;;;23.37;53.16;101843.59;5204351;28;20140;-79
2023/06/24 10:14:43;;;;;;;0.70;0.70;;;;;;;23.38;53.47;101837.28;5201032;28;20560;-81
2023/06/24 10:17:34;;;;;;;1.00;0.95;;;;;;;23.35;50.92;101840.16;5205655;28;20119;-78
2023/06/24 10:20:26;;;;;;;0.38;0.38;;;;;;;23.46;51.02;101834.13;5185431;28;20119;-78
2023/06/24 10:23:16;;;;;;;1.33;1.20;;;;;;;23.46;51.14;101826.94;5206880;28;20061;-78
2023/06/24 10:26:23;;;;;;;0.80;0.80;;;;;;;23.55;49.01;101834.41;5205711;28;20040;-78
2023/06/24 10:29:17;;;;;;;0.70;0.63;;;;;;;23.57;50.13;101835.16;5203805;28;20030;-78
2023/06/24 10:32:09;;;;;;;1.15;1.08;;;;;;;23.63;50.33;101833.03;5215558;28;20118;-79
2023/06/24 10:35:00;;;;;;;1.83;1.35;;;;;;;23.63;47.76;101819.66;5213381;28;20037;-80
2023/06/24 10:37:56;;;;;;;0.43;0.43;;;;;;;23.78;48.72;101820.47;5193609;28;20041;-80
2023/06/24 10:40:49;;;;;;;2.67;2.47;;;;;;;23.87;49.31;101819.88;5202094;28;20071;-81
2023/06/24 10:43:39;;;;;;;0.70;0.70;;;;;;;23.83;49.48;101812.97;5207918;28;20040;-80
2023/06/24 10:46:33;;;;;;;0.60;0.60;;;;;;;23.99;47.47;101802.13;5220685;28;20041;-79
2023/06/24 10:49:23;;;;;;;1.05;1.02;;;;;;;24.01;47.06;101802.88;5182151;28;20064;-80
2023/06/24 10:56:21;;;;;;;0.60;0.60;;;;;;;24.37;48.84;101795.97;5188527;28;20049;-80
2023/06/24 10:59:12;;;;;;;0.45;0.38;;;;;;;24.49;49.42;101787.09;5218087;28;20406;-80
2023/06/24 11:02:03;;;;;;;0.47;0.47;;;;;;;24.59;49.19;101791.78;5187735;28;20064;-81
2023/06/24 11:05:01;;;;;;;2.67;1.48;;;;;;;24.75;48.50;101783.56;5190020;28;20032;-81
2023/06/24 11:07:52;;;;;;;0.50;0.50;;;;;;;24.46;44.31;101787.31;5201426;28;20026;-80
2023/06/24 11:10:47;;;;;;;0.20;0.20;;;;;;;24.76;44.41;101783.44;5197405;28;20475;-82
2023/06/24 11:13:41;;;;;;;0.75;0.68;;;;;;;24.98;42.01;101790.00;5220581;28;20025;-78
2023/06/24 11:16:32;;;;;;;0.28;0.28;;;;;;;24.71;38.81;101782.09;5227274;28;20076;-79
2023/06/24 11:19:25;;;;;;;0.50;0.50;;;;;;;24.87;40.68;101777.34;5200719;28;20013;-78
2023/06/24 11:22:17;;;;;;;0.43;0.43;;;;;;;25.03;39.67;101778.94;5235187;28;20055;-78
2023/06/24 11:25:23;;;;;;;0.98;0.55;;;;;;;24.89;40.71;101775.38;5225896;28;20065;-79
2023/06/24 11:28:17;;;;;;;0.32;0.32;;;;;;;25.27;39.57;101776.28;5210221;28;20013;-79
2023/06/24 11:31:10;;;;;;;0.20;0.20;;;;;;;25.14;40.60;101771.81;5205397;28;20029;-78
2023/06/24 11:34:00;;;;;;;0.28;0.28;;;;;;;25.35;36.88;101765.81;5219985;28;20037;-78
2023/06/24 11:36:51;;;;;;;0.35;0.35;;;;;;;25.26;37.86;101766.50;5209966;28;20083;-80
2023/06/24 11:39:43;;;;;;;0.40;0.40;;;;;;;25.51;34.75;101759.34;5211784;28;20044;-80
2023/06/24 11:42:39;;;;;;;0.80;0.75;;;;;;;25.53;34.25;101762.78;5224215;28;20084;-80
2023/06/24 11:45:31;;;;;;;0.40;0.40;;;;;;;25.66;33.09;101755.50;5219987;28;20091;-81
2023/06/24 11:48:22;;;;;;;0.43;0.43;;;;;;;25.80;35.79;101762.53;5204550;28;20148;-81
2023/06/24 11:51:14;;;;;;;0.20;0.20;;;;;;;25.93;36.31;101771.41;5208179;28;20025;-80
2023/06/24 11:54:05;;;;;;;1.23;0.88;;;;;;;25.81;38.38;101758.03;5215927;28;20108;-80
2023/06/24 11:56:56;;;;;;;0.32;0.32;;;;;;;26.15;37.95;101748.25;5229054;28;20088;-80
2023/06/24 11:59:52;;;;;;;0.40;0.40;;;;;;;26.29;36.40;101749.88;5208549;28;20496;-79
2023/06/24 12:02:43;;;;;;;1.00;1.00;;;;;;;26.38;36.42;101751.88;5215369;28;20049;-80
2023/06/24 12:05:35;;;;;;;0.32;0.32;;;;;;;26.36;36.72;101743.06;5220067;28;20025;-80
2023/06/24 12:08:26;;;;;;;0.20;0.20;;;;;;;26.65;37.68;101739.03;5218702;28;20065;-81
2023/06/24 12:11:17;;;;;;;0.30;0.30;;;;;;;26.90;35.86;101737.94;5214958;28;20067;-80
2023/06/24 12:14:08;;;;;;;0.30;0.30;;;;;;;26.69;37.39;101738.66;5221592;28;20425;-80
2023/06/24 12:16:59;;;;;;;0.45;0.45;;;;;;;27.00;36.67;101730.84;5220140;28;20111;-80
2023/06/24 12:19:50;;;;;;;0.20;0.20;;;;;;;27.05;35.92;101732.31;5217287;28;20029;-80
2023/06/24 12:22:41;;;;;;;0.30;0.30;;;;;;;27.31;36.11;101722.06;5211627;28;20724;-80
2023/06/24 12:25:32;;;;;;;1.08;0.75;;;;;;;27.35;37.27;101734.31;5204803;28;20037;-79
2023/06/24 12:28:23;;;;;;;0.30;0.30;;;;;;;27.25;37.55;101731.50;5225841;28;20037;-79
2023/06/24 12:31:14;;;;;;;2.85;0.75;;;;;;;27.18;37.32;101724.94;5210430;28;20033;-79
2023/06/24 12:34:05;;;;;;;0.30;0.30;;;;;;;27.29;35.48;101722.22;5199658;28;20034;-81
2023/06/24 12:36:56;;;;;;;0.28;0.28;;;;;;;27.15;35.76;101720.66;5207120;28;20041;-80
2023/06/24 12:39:47;;;;;;;0.20;0.20;;;;;;;27.87;33.90;101712.06;5210838;28;20115;-81
2023/06/24 12:42:38;;;;;;;0.65;0.50;;;;;;;27.71;36.12;101716.06;5218693;28;20044;-81
2023/06/24 12:45:29;;;;;;;1.45;1.20;;;;;;;27.83;35.85;101722.25;5217411;28;20046;-80
2023/06/24 12:48:19;;;;;;;1.10;0.95;;;;;;;28.06;33.48;101719.41;5223883;28;20060;-80
2023/06/24 12:51:10;;;;;;;1.02;0.77;;;;;;;28.02;32.76;101709.91;5217543;28;20078;-80
2023/06/24 12:54:01;;;;;;;0.30;0.30;;;;;;;28.07;36.25;101711.25;5223107;28;20028;-81
2023/06/24 12:56:52;;;;;;;0.10;0.10;;;;;;;28.05;35.39;101713.19;5217445;28;20112;-80
2023/06/24 12:59:43;;;;;;;0.20;0.20;;;;;;;28.18;32.67;101707.63;5217787;28;20029;-81
2023/06/24 13:02:36;;;;;;;0.88;0.70;;;;;;;28.17;35.38;101697.81;5217396;28;20032;-80
2023/06/24 13:05:27;;;;;;;0.20;0.20;;;;;;;28.80;32.30;101702.22;5208186;28;20107;-82
2023/06/24 13:08:17;;;;;;;0.65;0.63;;;;;;;29.20;31.13;101704.03;5179569;28;20468;-81
2023/06/24 13:11:08;;;;;;;1.50;0.40;;;;;;;28.75;33.46;101709.88;5215537;28;20029;-80
2023/06/24 13:14:02;;;;;;;0.30;0.30;;;;;;;29.07;33.02;101707.97;5193299;28;20039;-80
2023/06/24 13:17:02;;;;;;;0.22;0.22;;;;;;;29.17;32.29;101698.03;5201946;28;20038;-81
2023/06/24 13:19:53;;;;;;;0.20;0.20;;;;;;;29.20;31.42;101697.75;5216630;28;20059;-80
2023/06/24 13:22:43;;;;;;;0.35;0.35;;;;;;;29.21;33.80;101688.66;5195678;28;20040;-79
2023/06/24 13:25:34;;;;;;;0.40;0.40;;;;;;;29.09;33.39;101695.19;5206244;28;20060;-80
2023/06/24 13:28:25;;;;;;;0.30;0.30;;;;;;;29.31;33.54;101688.66;5199433;28;20116;-80